createdAt,value
2022-11-27T00:01:09.906Z,101952.03
2022-11-27T00:03:38.777Z,101941.56
2022-11-27T00:06:07.585Z,101942.44
2022-11-27T00:08:36.444Z,101951.16
2022-11-27T00:11:08.692Z,101954.75
2022-11-27T00:13:38.277Z,101952.06
2022-11-27T00:16:07.170Z,101953.69
2022-11-27T00:18:35.550Z,101950.31
2022-11-27T00:21:04.409Z,101963.28
2022-11-27T00:23:33.169Z,101957.16
2022-11-27T00:26:01.427Z,101960.59
2022-11-27T00:28:30.595Z,101958.09
2022-11-27T00:31:00.227Z,101967.59
2022-11-27T00:33:28.594Z,101965.91
2022-11-27T00:35:56.337Z,101958.97
2022-11-27T00:38:23.928Z,101961.59
2022-11-27T00:40:51.694Z,101952.81
2022-11-27T00:43:20.073Z,101958.00
2022-11-27T00:45:49.426Z,101942.44
2022-11-27T00:48:18.842Z,101946.81
2022-11-27T00:50:49.713Z,101943.34
2022-11-27T00:53:17.351Z,101945.91
2022-11-27T00:55:46.703Z,101942.41
2022-11-27T00:58:14.500Z,101942.44
2022-11-27T01:00:42.262Z,101934.66
2022-11-27T01:03:10.218Z,101944.94
2022-11-27T01:05:39.425Z,101927.66
2022-11-27T01:08:07.047Z,101934.56
2022-11-27T01:10:34.849Z,101928.50
2022-11-27T01:13:02.558Z,101939.84
2022-11-27T01:15:31.102Z,101931.16
2022-11-27T01:17:59.304Z,101940.63
2022-11-27T01:20:27.139Z,101937.16
2022-11-27T01:22:57.218Z,101938.03
2022-11-27T01:25:27.067Z,101942.41
2022-11-27T01:27:55.184Z,101943.38
2022-11-27T01:30:22.756Z,101945.94
2022-11-27T01:32:50.762Z,101948.56
2022-11-27T01:35:18.508Z,101955.50
2022-11-27T01:37:46.110Z,101951.09
2022-11-27T01:40:15.342Z,101951.09
2022-11-27T01:42:43.468Z,101957.97
2022-11-27T01:45:15.113Z,101953.66
2022-11-27T01:47:46.951Z,101960.59
2022-11-27T01:50:17.297Z,101967.53
2022-11-27T01:52:51.058Z,101958.84
2022-11-27T01:55:25.925Z,101962.41
2022-11-27T01:57:58.367Z,101964.09
2022-11-27T02:00:26.926Z,101964.84
2022-11-27T02:02:54.736Z,101967.47
2022-11-27T02:05:24.326Z,101975.19
2022-11-27T02:07:53.226Z,101971.69
2022-11-27T02:10:36.329Z,101968.19
2022-11-27T02:13:09.012Z,101970.81
2022-11-27T02:15:45.506Z,101970.84
2022-11-27T02:18:22.030Z,101962.94
2022-11-27T02:20:56.653Z,101971.53
2022-11-27T02:23:51.875Z,101967.28
2022-11-27T02:26:46.940Z,101971.59
2022-11-27T02:29:19.886Z,101964.69
2022-11-27T02:31:55.678Z,101985.44
2022-11-27T02:34:27.859Z,101986.25
2022-11-27T02:37:03.528Z,101988.94
2022-11-27T02:39:36.202Z,101995.81
2022-11-27T02:42:08.317Z,102003.47
2022-11-27T02:44:43.918Z,101987.91
2022-11-27T02:47:13.648Z,102000.94
2022-11-27T02:49:44.189Z,101993.97
2022-11-27T02:52:14.154Z,102004.50
2022-11-27T02:54:48.340Z,101995.72
2022-11-27T02:57:18.167Z,102007.91
2022-11-27T02:59:48.565Z,102019.16
2022-11-27T03:02:23.669Z,102018.25
2022-11-27T03:04:55.822Z,102026.16
2022-11-27T03:07:32.448Z,102029.53
2022-11-27T03:10:06.446Z,102024.41
2022-11-27T03:12:34.564Z,102021.81
2022-11-27T03:15:04.244Z,102025.25
2022-11-27T03:17:41.750Z,102026.13
2022-11-27T03:20:15.935Z,102016.69
2022-11-27T03:22:44.923Z,102018.28
2022-11-27T03:25:12.969Z,102022.53
2022-11-27T03:27:46.384Z,102023.44
2022-11-27T03:30:15.795Z,102024.25
2022-11-27T03:32:43.866Z,102020.84
2022-11-27T03:35:14.637Z,102015.56
2022-11-27T03:37:42.562Z,102019.88
2022-11-27T03:40:11.673Z,102014.66
2022-11-27T03:42:52.097Z,102017.28
2022-11-27T03:45:30.898Z,102030.31
2022-11-27T03:48:09.534Z,102027.63
2022-11-27T03:50:50.429Z,102031.22
2022-11-27T03:53:24.932Z,102038.09
2022-11-27T03:55:59.863Z,102043.34
2022-11-27T03:58:34.433Z,102039.81
2022-11-27T04:01:08.005Z,102041.56
2022-11-27T04:03:36.168Z,102047.47
2022-11-27T04:06:04.163Z,102043.19
2022-11-27T04:08:32.592Z,102042.38
2022-11-27T04:11:00.880Z,102045.78
2022-11-27T04:13:28.639Z,102044.06
2022-11-27T04:16:00.602Z,102053.53
2022-11-27T04:18:30.114Z,102052.75
2022-11-27T04:20:58.035Z,102052.66
2022-11-27T04:23:25.834Z,102044.00
2022-11-27T04:25:53.462Z,102041.41
2022-11-27T04:28:21.475Z,102051.78
2022-11-27T04:30:53.591Z,102050.84
2022-11-27T04:33:21.908Z,102047.38
2022-11-27T04:35:50.987Z,102055.16
2022-11-27T04:38:19.754Z,102050.78
2022-11-27T04:40:47.901Z,102052.66
2022-11-27T04:43:15.683Z,102043.91
2022-11-27T04:45:43.740Z,102047.28
2022-11-27T04:48:11.518Z,102052.47
2022-11-27T04:50:39.090Z,102057.50
2022-11-27T04:53:08.328Z,102051.59
2022-11-27T04:55:36.039Z,102043.81
2022-11-27T04:58:03.594Z,102048.88
2022-11-27T05:00:31.863Z,102052.25
2022-11-27T05:02:59.869Z,102047.03
2022-11-27T05:05:27.589Z,102056.44
2022-11-27T05:07:56.499Z,102064.31
2022-11-27T05:10:25.820Z,102065.97
2022-11-27T05:12:53.483Z,102069.38
2022-11-27T05:15:21.639Z,102067.53
2022-11-27T05:17:49.935Z,102083.34
2022-11-27T05:20:17.901Z,102080.72
2022-11-27T05:22:45.683Z,102090.16
2022-11-27T05:25:13.355Z,102090.22
2022-11-27T05:27:42.803Z,102089.28
2022-11-27T05:30:10.922Z,102089.50
2022-11-27T05:32:38.972Z,102085.22
2022-11-27T05:35:07.603Z,102092.09
2022-11-27T05:37:35.739Z,102099.06
2022-11-27T05:40:03.874Z,102095.66
2022-11-27T05:42:31.710Z,102100.03
2022-11-27T05:45:01.127Z,102092.25
2022-11-27T05:47:29.066Z,102097.38
2022-11-27T05:49:56.617Z,102106.03
2022-11-27T05:52:24.448Z,102097.38
2022-11-27T05:54:52.626Z,102109.53
2022-11-27T05:57:20.333Z,102100.84
2022-11-27T05:59:48.117Z,102107.84
2022-11-27T06:02:22.605Z,102105.34
2022-11-27T06:04:53.205Z,102100.28
2022-11-27T06:07:20.886Z,102107.13
2022-11-27T06:09:48.606Z,102118.44
2022-11-27T06:12:16.580Z,102109.81
2022-11-27T06:14:44.601Z,102096.06
2022-11-27T06:17:12.758Z,102097.91
2022-11-27T06:19:42.856Z,102104.97
2022-11-27T06:22:10.573Z,102104.34
2022-11-27T06:24:38.328Z,102099.28
2022-11-27T06:27:06.391Z,102098.41
2022-11-27T06:29:34.793Z,102092.41
2022-11-27T06:32:02.507Z,102105.69
2022-11-27T06:34:33.554Z,102099.78
2022-11-27T06:37:02.534Z,102092.13
2022-11-27T06:39:30.491Z,102087.13
2022-11-27T06:41:58.565Z,102079.25
2022-11-27T06:44:26.236Z,102085.47
2022-11-27T06:46:53.836Z,102082.81
2022-11-27T06:49:21.960Z,102085.59
2022-11-27T06:51:50.085Z,102085.56
2022-11-27T06:54:20.627Z,102077.97
2022-11-27T06:56:50.827Z,102082.47
2022-11-27T06:59:19.516Z,102082.38
2022-11-27T07:01:48.573Z,102071.19
2022-11-27T07:04:17.081Z,102067.72
2022-11-27T07:06:44.667Z,102078.16
2022-11-27T07:09:12.809Z,102074.81
2022-11-27T07:11:42.616Z,102074.03
2022-11-27T07:14:10.665Z,102070.53
2022-11-27T07:16:38.580Z,102070.41
2022-11-27T07:19:07.923Z,102062.47
2022-11-27T07:21:37.417Z,102073.19
2022-11-27T07:24:05.738Z,102076.47
2022-11-27T07:26:33.791Z,102082.59
2022-11-27T07:29:02.810Z,102072.09
2022-11-27T07:31:31.262Z,102091.19
2022-11-27T07:33:59.780Z,102097.25
2022-11-27T07:36:29.614Z,102091.78
2022-11-27T07:38:57.848Z,102087.63
2022-11-27T07:41:32.290Z,102086.00
2022-11-27T07:44:03.326Z,102112.06
2022-11-27T07:46:31.125Z,102105.69
2022-11-27T07:48:58.712Z,102114.59
2022-11-27T07:51:27.096Z,102105.28
2022-11-27T07:53:54.865Z,102096.69
2022-11-27T07:56:22.505Z,102093.88
2022-11-27T07:58:50.305Z,102104.19
2022-11-27T08:01:20.020Z,102109.25
2022-11-27T08:03:47.702Z,102111.78
2022-11-27T08:06:17.831Z,102116.97
2022-11-27T08:08:45.995Z,102120.34
2022-11-27T08:11:22.472Z,102119.28
2022-11-27T08:13:51.274Z,102127.16
2022-11-27T08:16:20.301Z,102120.38
2022-11-27T08:18:48.128Z,102126.47
2022-11-27T12:14:56.739Z,102068.78
2022-11-27T12:17:43.530Z,102076.69
2022-11-27T12:20:18.477Z,102081.97
2022-11-27T12:23:16.158Z,102084.28
2022-11-27T12:25:52.054Z,102100.03
2022-11-27T12:28:33.084Z,102094.84
2022-11-27T12:31:11.070Z,102087.66
2022-11-27T12:33:58.243Z,102096.44
2022-11-27T12:36:42.651Z,102098.88
2022-11-27T12:39:19.530Z,102098.00
2022-11-27T12:41:59.178Z,102100.59
2022-11-27T12:44:36.310Z,102104.13
2022-11-27T12:47:11.272Z,102098.16
2022-11-27T12:49:45.181Z,102105.00
2022-11-27T12:52:18.945Z,102102.41
2022-11-27T12:54:53.408Z,102103.00
2022-11-27T12:57:27.467Z,102102.97
2022-11-27T12:59:59.683Z,102110.81
2022-11-27T13:02:36.357Z,102101.38
2022-11-27T13:05:07.259Z,102103.69
2022-11-27T13:07:44.518Z,102110.72
2022-11-27T13:10:19.371Z,102112.44
2022-11-27T13:12:54.035Z,102112.44
2022-11-27T13:15:27.910Z,102117.63
2022-11-27T13:18:03.442Z,102100.97
2022-11-27T13:20:36.973Z,102110.22
2022-11-27T13:23:04.820Z,102113.66
2022-11-27T13:25:37.149Z,102126.00
2022-11-27T13:28:06.414Z,102123.31
2022-11-27T13:30:37.255Z,102122.53
2022-11-27T13:33:06.631Z,102123.09
2022-11-27T13:35:39.240Z,102116.13
2022-11-27T13:38:11.574Z,102120.34
2022-11-27T16:07:01.058Z,102132.53
2022-11-27T16:09:28.893Z,102127.38
2022-11-27T16:11:56.525Z,102122.03
2022-11-27T16:14:24.436Z,102126.41
2022-11-27T16:16:52.280Z,102145.38
2022-11-27T16:19:20.020Z,102138.53
2022-11-27T16:21:48.354Z,102139.44
2022-11-27T16:24:17.425Z,102125.66
2022-11-27T16:26:45.274Z,102137.81
2022-11-27T16:29:13.335Z,102135.16
2022-11-27T16:31:41.241Z,102139.63
2022-11-27T16:34:08.951Z,102148.19
2022-11-27T16:36:36.924Z,102145.59
2022-11-27T16:39:04.623Z,102143.00
2022-11-27T16:41:34.674Z,102145.53
2022-11-27T16:44:08.909Z,102145.53
2022-11-27T16:46:36.807Z,102154.16
2022-11-27T16:49:05.169Z,102151.59
2022-11-27T16:51:34.736Z,102138.47
2022-11-27T16:54:04.409Z,102149.91
2022-11-27T16:56:34.801Z,102152.44
2022-11-27T16:59:03.561Z,102162.94
2022-11-27T17:01:33.611Z,102158.56
2022-11-27T17:04:02.555Z,102159.41
2022-11-27T17:06:31.627Z,102156.06
2022-11-27T17:09:01.952Z,102153.44
2022-11-27T17:11:32.251Z,102157.69
2022-11-27T17:14:03.288Z,102143.91
2022-11-27T17:16:31.483Z,102145.66
2022-11-27T17:18:59.360Z,102148.19
2022-11-27T17:21:31.306Z,102157.75
2022-11-27T17:24:00.704Z,102154.28
2022-11-27T17:26:31.754Z,102150.84
2022-11-27T17:29:01.288Z,102149.09
2022-11-27T17:31:31.068Z,102151.69
2022-11-27T17:34:00.613Z,102141.31
2022-11-27T17:36:35.255Z,102149.09
2022-11-27T17:39:05.970Z,102159.56
2022-11-27T17:41:34.173Z,102160.41
2022-11-27T17:44:04.731Z,102147.41
2022-11-27T17:46:34.638Z,102151.84
2022-11-27T17:49:03.377Z,102151.03
2022-11-27T17:51:32.985Z,102149.34
2022-11-27T17:54:01.799Z,102145.00
2022-11-27T17:56:31.602Z,102144.97
2022-11-27T17:58:59.227Z,102142.38
2022-11-27T18:01:29.445Z,102128.56
2022-11-27T18:03:59.116Z,102135.47
2022-11-27T18:06:27.785Z,102131.19
2022-11-27T18:08:55.855Z,102136.38
2022-11-27T18:11:27.128Z,102137.19
2022-11-27T18:13:54.963Z,102135.38
2022-11-27T18:16:25.378Z,102137.00
2022-11-27T18:18:55.240Z,102138.88
2022-11-27T18:21:23.940Z,102145.69
2022-11-27T18:24:21.805Z,102149.84
2022-11-27T18:29:29.501Z,102157.69
2022-11-27T18:31:57.723Z,102148.13
2022-11-27T18:34:27.797Z,102153.13
2022-11-27T18:36:55.868Z,102142.88
2022-11-27T18:39:23.715Z,102142.75
2022-11-27T18:41:51.421Z,102131.44
2022-11-27T18:44:19.441Z,102132.25
2022-11-27T18:46:47.143Z,102132.25
2022-11-27T18:49:14.933Z,102125.28
2022-11-27T18:51:45.479Z,102129.72
2022-11-27T18:54:13.496Z,102123.56
2022-11-27T18:56:42.123Z,102113.09
2022-11-27T18:59:10.538Z,102120.81
2022-11-27T19:01:42.294Z,102124.25
2022-11-27T19:04:11.409Z,102119.00
2022-11-27T19:06:40.220Z,102104.19
2022-11-27T19:09:11.517Z,102111.97
2022-11-27T19:11:40.827Z,102117.16
2022-11-27T19:14:09.832Z,102121.34
2022-11-27T19:16:40.031Z,102118.78
2022-11-27T19:19:11.704Z,102117.91
2022-11-27T19:21:54.764Z,102120.44
2022-11-27T19:24:24.037Z,102109.22
2022-11-27T19:26:51.919Z,102123.88
2022-11-27T19:29:19.943Z,102127.31
2022-11-27T19:31:47.663Z,102120.16
2022-11-27T19:34:15.758Z,102127.22
2022-11-27T19:36:44.093Z,102138.47
2022-11-27T19:39:15.027Z,102143.53
2022-11-27T19:41:45.480Z,102142.69
2022-11-27T19:44:15.117Z,102136.53
2022-11-27T19:46:43.140Z,102143.44
